createdAt,value
2023-02-06T00:00:43.819Z,4.55
2023-02-06T00:03:45.965Z,5.30
2023-02-06T00:06:48.333Z,4.80
2023-02-06T00:09:50.240Z,5.57
2023-02-06T00:12:52.463Z,5.82
2023-02-06T00:15:54.823Z,5.57
2023-02-06T00:18:58.247Z,5.88
2023-02-06T00:22:00.249Z,5.72
2023-02-06T00:25:02.601Z,5.07
2023-02-06T00:28:05.262Z,5.70
2023-02-06T00:31:08.807Z,4.85
2023-02-06T00:34:10.871Z,5.15
2023-02-06T00:37:15.113Z,5.68
2023-02-06T00:40:18.169Z,6.63
2023-02-06T00:43:20.699Z,5.40
2023-02-06T00:46:23.033Z,4.70
2023-02-06T00:49:25.554Z,5.00
2023-02-06T00:52:27.988Z,5.57
2023-02-06T00:55:31.200Z,5.80
2023-02-06T00:58:33.297Z,5.57
2023-02-06T01:01:35.510Z,5.72
2023-02-06T01:04:37.709Z,5.18
2023-02-06T01:07:42.669Z,5.20
2023-02-06T01:10:45.989Z,4.53
2023-02-06T01:13:48.116Z,5.90
2023-02-06T01:16:51.546Z,5.55
2023-02-06T01:19:54.222Z,6.47
2023-02-06T01:22:56.249Z,5.05
2023-02-06T01:25:58.282Z,5.72
2023-02-06T01:29:02.167Z,5.63
2023-02-06T01:32:04.335Z,5.75
2023-02-06T01:35:08.505Z,4.95
2023-02-06T01:38:10.582Z,6.00
2023-02-06T01:41:13.604Z,5.20
2023-02-06T01:44:23.427Z,6.10
2023-02-06T01:47:25.577Z,5.82
2023-02-06T01:50:33.426Z,5.63
2023-02-06T01:53:36.236Z,6.32
2023-02-06T01:56:55.321Z,5.60
2023-02-06T02:00:01.764Z,6.00
2023-02-06T02:03:13.945Z,5.38
2023-02-06T02:06:20.987Z,5.95
2023-02-06T02:09:23.872Z,5.95
2023-02-06T02:12:26.342Z,6.10
2023-02-06T02:15:41.871Z,6.32
2023-02-06T02:19:13.989Z,6.18
2023-02-06T02:22:40.066Z,5.28
2023-02-06T02:25:47.722Z,6.18
2023-02-06T02:32:28.536Z,4.78
2023-02-06T02:35:38.036Z,5.65
2023-02-06T02:38:54.551Z,5.18
2023-02-06T02:41:58.542Z,5.90
2023-02-06T02:45:12.366Z,3.53
2023-02-06T02:48:18.944Z,4.53
2023-02-06T02:51:23.818Z,5.35
2023-02-06T02:54:26.613Z,4.72
2023-02-06T02:57:31.938Z,5.45
2023-02-06T03:00:43.493Z,5.28
2023-02-06T03:03:48.522Z,6.07
2023-02-06T03:07:09.011Z,4.95
2023-02-06T03:10:30.357Z,5.28
2023-02-06T03:13:39.475Z,5.35
2023-02-06T03:16:59.676Z,4.20
2023-02-06T03:20:04.796Z,4.68
2023-02-06T03:23:08.836Z,4.63
2023-02-06T03:26:15.853Z,4.57
2023-02-06T03:29:19.330Z,5.07
2023-02-06T03:32:34.633Z,4.88
2023-02-06T03:35:38.653Z,4.43
2023-02-06T03:38:40.949Z,4.45
2023-02-06T03:41:44.545Z,4.38
2023-02-06T03:44:54.337Z,5.00
2023-02-06T03:48:00.918Z,4.90
2023-02-06T03:51:09.593Z,5.15
2023-02-06T03:57:19.533Z,4.55
2023-02-06T04:00:21.959Z,4.57
2023-02-06T04:03:24.640Z,5.20
2023-02-06T04:06:26.694Z,5.03
2023-02-06T04:09:28.871Z,4.35
2023-02-06T04:12:31.568Z,5.97
2023-02-06T04:15:33.898Z,5.85
2023-02-06T04:18:35.988Z,4.43
2023-02-06T04:21:38.207Z,4.40
2023-02-06T04:24:41.580Z,4.70
2023-02-06T04:27:43.683Z,5.32
2023-02-06T04:30:48.905Z,5.25
2023-02-06T04:33:51.501Z,5.05
2023-02-06T04:36:53.504Z,5.35
2023-02-06T04:39:55.663Z,5.25
2023-02-06T04:42:57.813Z,4.40
2023-02-06T04:46:00.391Z,4.70
2023-02-06T04:49:02.421Z,5.70
2023-02-06T04:52:04.634Z,4.70
2023-02-06T04:55:07.119Z,4.95
2023-02-06T04:58:09.580Z,5.82
2023-02-06T05:01:11.759Z,5.00
2023-02-06T05:04:13.787Z,5.22
2023-02-06T05:07:15.903Z,6.05
2023-02-06T05:10:18.063Z,5.75
2023-02-06T05:13:20.332Z,6.13
2023-02-06T05:16:22.736Z,6.35
2023-02-06T05:19:24.937Z,6.15
2023-02-06T05:22:27.188Z,6.72
2023-02-06T05:25:30.002Z,6.38
2023-02-06T05:28:33.664Z,5.20
2023-02-06T05:31:36.443Z,5.65
2023-02-06T05:34:38.631Z,5.47
2023-02-06T05:37:40.900Z,5.03
2023-02-06T05:40:42.993Z,4.90
2023-02-06T05:43:45.109Z,5.85
2023-02-06T05:46:48.632Z,5.63
2023-02-06T05:49:50.621Z,6.10
2023-02-06T05:52:52.745Z,5.20
2023-02-06T05:55:54.951Z,6.75
2023-02-06T05:58:57.079Z,6.22
2023-02-06T06:01:59.193Z,5.15
2023-02-06T06:05:01.388Z,5.43
2023-02-06T06:08:03.657Z,4.88
2023-02-06T06:11:05.917Z,6.28
2023-02-06T06:14:08.110Z,5.35
2023-02-06T06:17:10.186Z,4.97
2023-02-06T06:20:12.315Z,4.95
2023-02-06T06:23:14.700Z,5.00
2023-02-06T06:26:16.938Z,4.57
2023-02-06T06:29:19.079Z,5.53
2023-02-06T06:32:21.065Z,5.00
2023-02-06T06:35:23.109Z,5.13
2023-02-06T06:38:25.441Z,4.35
2023-02-06T06:41:27.560Z,5.72
2023-02-06T06:44:29.644Z,6.32
2023-02-06T06:47:31.758Z,6.40
2023-02-06T06:50:33.903Z,5.53
2023-02-06T06:53:40.205Z,5.75
2023-02-06T06:56:42.606Z,5.88
2023-02-06T06:59:44.927Z,4.90
2023-02-06T07:02:47.513Z,5.10
2023-02-06T07:05:55.299Z,5.15
2023-02-06T07:08:57.523Z,4.70
2023-02-06T07:12:01.999Z,5.43
2023-02-06T07:15:05.095Z,5.50
2023-02-06T07:18:07.097Z,5.10
2023-02-06T07:21:10.570Z,5.15
2023-02-06T07:24:12.618Z,5.78
2023-02-06T07:27:15.003Z,5.80
2023-02-06T07:30:17.475Z,5.13
2023-02-06T07:33:19.572Z,6.68
2023-02-06T07:36:21.656Z,5.93
2023-02-06T07:39:23.764Z,4.07
2023-02-06T07:42:25.869Z,5.95
2023-02-06T07:45:33.281Z,5.93
2023-02-06T07:48:35.361Z,5.90
2023-02-06T07:51:37.604Z,6.05
2023-02-06T07:54:39.658Z,6.07
2023-02-06T07:57:42.771Z,6.22
2023-02-06T08:00:45.976Z,5.15
2023-02-06T08:03:52.143Z,5.22
2023-02-06T08:06:54.123Z,6.25
2023-02-06T08:09:56.159Z,5.55
2023-02-06T08:12:58.130Z,6.47
2023-02-06T08:16:07.201Z,6.65
2023-02-06T08:19:11.140Z,6.38
2023-02-06T08:22:13.196Z,5.28
2023-02-06T08:25:15.537Z,6.20
2023-02-06T08:28:17.817Z,7.57
2023-02-06T08:31:25.872Z,5.80
2023-02-06T08:34:28.436Z,6.60
2023-02-06T08:37:32.026Z,6.80
2023-02-06T08:40:34.217Z,6.40
2023-02-06T08:43:36.226Z,6.47
2023-02-06T08:46:40.246Z,5.20
2023-02-06T08:49:42.266Z,6.45
2023-02-06T08:52:44.352Z,6.45
2023-02-06T08:55:46.483Z,6.28
2023-02-06T08:58:48.598Z,7.57
2023-02-06T09:01:52.269Z,6.80
2023-02-06T09:04:54.536Z,6.25
2023-02-06T09:07:56.770Z,6.82
2023-02-06T09:11:06.865Z,6.60
2023-02-06T09:14:13.077Z,5.97
2023-02-06T09:17:15.182Z,5.90
2023-02-06T09:20:17.500Z,5.60
2023-02-06T09:23:19.916Z,7.40
2023-02-06T09:26:27.654Z,6.32
2023-02-06T09:29:34.062Z,6.07
2023-02-06T09:32:38.070Z,5.07
2023-02-06T09:35:40.075Z,5.22
2023-02-06T09:38:46.625Z,5.57
2023-02-06T09:41:54.630Z,5.63
2023-02-06T09:45:28.352Z,6.63
2023-02-06T09:48:35.091Z,6.47
2023-02-06T09:51:55.331Z,7.43
2023-02-06T09:55:16.389Z,5.28
2023-02-06T09:59:09.536Z,6.22
2023-02-06T10:02:17.242Z,4.80
2023-02-06T10:05:25.074Z,4.50
2023-02-06T10:08:39.243Z,6.20
2023-02-06T10:11:54.912Z,3.38
2023-02-06T10:15:11.340Z,5.47
2023-02-06T10:18:43.988Z,2.92
2023-02-06T10:21:55.596Z,4.63
2023-02-06T10:25:13.540Z,5.03
2023-02-06T10:28:20.921Z,5.20
2023-02-06T10:31:26.131Z,4.90
2023-02-06T10:34:40.337Z,5.82
2023-02-06T10:37:57.208Z,6.40
2023-02-06T10:41:10.143Z,6.20
2023-02-06T10:44:28.189Z,4.30
2023-02-06T10:47:41.499Z,4.90
2023-02-06T10:50:59.968Z,5.53
2023-02-06T10:54:04.933Z,5.55
2023-02-06T10:57:17.558Z,6.38
2023-02-06T11:00:28.239Z,6.13
2023-02-06T11:03:32.332Z,6.85
2023-02-06T11:06:34.681Z,6.55
2023-02-06T11:09:37.007Z,6.50
2023-02-06T11:12:44.540Z,5.20
2023-02-06T11:16:02.410Z,4.95
2023-02-06T11:19:32.422Z,5.35
2023-02-06T11:22:41.599Z,5.65
2023-02-06T11:26:20.158Z,5.63
2023-02-06T11:29:26.699Z,5.43
2023-02-06T11:32:43.920Z,5.75
2023-02-06T11:36:00.040Z,5.43
2023-02-06T11:39:07.054Z,6.00
2023-02-06T11:42:22.380Z,5.57
2023-02-06T11:45:32.079Z,7.63
2023-02-06T11:48:40.522Z,7.93
2023-02-06T11:51:54.519Z,5.15
2023-02-06T11:55:01.878Z,5.32
2023-02-06T11:58:13.024Z,5.63
2023-02-06T12:01:21.302Z,4.63
2023-02-06T12:04:39.064Z,7.18
2023-02-06T12:07:43.587Z,5.95
2023-02-06T12:11:03.176Z,5.40
2023-02-06T12:14:11.480Z,5.50
2023-02-06T12:17:40.034Z,5.95
2023-02-06T12:21:05.662Z,5.72
2023-02-06T12:24:28.869Z,5.70
2023-02-06T12:27:39.024Z,6.43
2023-02-06T12:31:01.110Z,5.28
2023-02-06T12:34:14.889Z,6.18
2023-02-06T12:37:46.808Z,8.02
2023-02-06T12:41:00.343Z,6.68
2023-02-06T12:44:44.312Z,5.68
2023-02-06T12:47:54.785Z,6.07
2023-02-06T12:51:10.876Z,6.25
2023-02-06T12:54:19.884Z,5.85
2023-02-06T13:00:46.475Z,5.70
2023-02-06T13:03:56.527Z,3.75
2023-02-06T13:07:07.339Z,3.53
2023-02-06T13:10:21.825Z,4.65
2023-02-06T13:13:26.470Z,4.47
2023-02-06T13:16:49.156Z,4.07
2023-02-06T13:20:19.493Z,4.13
2023-02-06T13:23:37.066Z,6.57
2023-02-06T13:31:31.747Z,4.40
2023-02-06T13:34:53.068Z,5.65
2023-02-06T13:38:48.404Z,6.10
2023-02-06T13:42:50.287Z,4.80
2023-02-06T13:45:57.798Z,6.25
2023-02-06T13:49:14.973Z,6.13
2023-02-06T13:52:24.669Z,5.82
2023-02-06T13:55:44.058Z,6.00
2023-02-06T13:58:52.672Z,6.47
2023-02-06T14:01:56.008Z,7.43
2023-02-06T14:04:59.057Z,5.93
2023-02-06T14:08:23.244Z,6.80
2023-02-06T14:12:03.278Z,6.65
2023-02-06T14:15:20.524Z,6.50
2023-02-06T14:18:22.515Z,6.97
2023-02-06T14:21:39.521Z,6.25
2023-02-06T14:25:04.275Z,5.85
2023-02-06T14:28:08.952Z,6.95
2023-02-06T14:31:48.879Z,6.22
2023-02-06T14:35:16.825Z,6.95
2023-02-06T14:38:33.630Z,5.32
2023-02-06T14:41:39.603Z,5.68
2023-02-06T14:44:43.423Z,5.35
2023-02-06T14:47:46.772Z,5.60
2023-02-06T14:50:56.670Z,5.70
2023-02-06T14:54:07.663Z,5.10
2023-02-06T14:57:35.890Z,5.45
2023-02-06T15:00:38.210Z,5.38
2023-02-06T15:03:41.989Z,4.78
2023-02-06T15:07:05.083Z,4.47
2023-02-06T15:10:11.980Z,5.15
2023-02-06T15:13:25.319Z,5.50
2023-02-06T15:16:44.670Z,6.10
2023-02-06T15:19:47.043Z,5.30
2023-02-06T15:22:49.740Z,7.55
2023-02-06T15:26:04.420Z,8.18
2023-02-06T15:29:19.792Z,7.13
2023-02-06T15:32:24.434Z,6.85
2023-02-06T15:35:39.127Z,6.78
2023-02-06T15:38:43.356Z,7.07
2023-02-06T15:41:48.242Z,6.45
2023-02-06T15:44:51.222Z,8.15
2023-02-06T15:47:55.106Z,7.65
2023-02-06T15:51:02.034Z,7.53
2023-02-06T15:54:15.998Z,8.88
2023-02-06T15:57:29.550Z,8.20
2023-02-06T16:00:34.997Z,7.93
2023-02-06T16:03:41.782Z,10.25
2023-02-06T16:06:45.769Z,6.93
2023-02-06T16:09:53.781Z,8.70
2023-02-06T16:13:00.192Z,11.05
2023-02-06T16:16:28.326Z,8.88
2023-02-06T16:19:48.558Z,15.60
2023-02-06T16:22:54.070Z,10.73
2023-02-06T16:26:12.974Z,8.73
2023-02-06T16:32:30.081Z,8.25
2023-02-06T16:35:32.318Z,7.57
2023-02-06T16:38:34.473Z,7.97
2023-02-06T16:41:39.117Z,8.45
2023-02-06T16:44:45.371Z,8.10
2023-02-06T16:47:48.559Z,7.82
2023-02-06T16:50:50.626Z,7.97
2023-02-06T16:53:53.309Z,7.05
2023-02-06T16:57:00.533Z,7.47
2023-02-06T17:00:05.729Z,7.07
2023-02-06T17:03:07.875Z,8.13
2023-02-06T17:06:18.021Z,7.38
2023-02-06T17:09:20.142Z,7.50
2023-02-06T17:12:23.072Z,7.38
2023-02-06T17:15:25.286Z,8.55
2023-02-06T17:18:28.752Z,8.27
2023-02-06T17:21:33.314Z,7.65
2023-02-06T17:24:36.465Z,7.53
2023-02-06T17:27:40.345Z,7.05
2023-02-06T17:30:43.165Z,8.05
2023-02-06T17:33:46.010Z,7.45
2023-02-06T17:36:55.948Z,7.78
2023-02-06T17:40:10.325Z,8.90
2023-02-06T17:43:16.239Z,8.30
2023-02-06T17:46:18.451Z,8.23
2023-02-06T17:49:31.019Z,7.50
2023-02-06T17:52:33.256Z,8.07
2023-02-06T17:55:44.083Z,6.95
2023-02-06T17:58:46.206Z,7.85
2023-02-06T18:01:48.328Z,8.10
2023-02-06T18:04:53.043Z,7.55
2023-02-06T18:07:55.280Z,7.03
2023-02-06T18:10:58.848Z,6.90
2023-02-06T18:14:00.990Z,8.00
2023-02-06T18:17:03.961Z,8.60
2023-02-06T18:20:07.262Z,8.57
2023-02-06T18:23:09.617Z,8.98
2023-02-06T18:26:12.089Z,5.95
2023-02-06T18:29:21.430Z,8.20
2023-02-06T18:32:25.429Z,7.40
2023-02-06T18:35:28.400Z,7.72
2023-02-06T18:38:37.219Z,7.88
2023-02-06T18:41:57.992Z,9.03
2023-02-06T18:45:04.184Z,8.27
2023-02-06T18:48:10.421Z,7.80
2023-02-06T18:51:12.479Z,6.93
2023-02-06T18:54:15.781Z,6.47
2023-02-06T18:57:17.972Z,7.40
2023-02-06T19:00:22.373Z,6.60
2023-02-06T19:03:31.996Z,6.13
2023-02-06T19:06:39.425Z,6.53
2023-02-06T19:09:45.562Z,6.18
2023-02-06T19:12:47.818Z,6.63
2023-02-06T19:15:50.496Z,6.63
2023-02-06T19:18:52.804Z,6.82
2023-02-06T19:21:56.446Z,6.30
2023-02-06T19:24:58.608Z,5.55
2023-02-06T19:28:05.195Z,6.18
2023-02-06T19:31:08.949Z,6.55
2023-02-06T19:34:11.428Z,5.30
2023-02-06T19:37:14.118Z,4.47
2023-02-06T19:40:16.685Z,5.30
2023-02-06T19:43:18.911Z,4.28
2023-02-06T19:46:23.794Z,5.22
2023-02-06T19:49:27.107Z,5.07
2023-02-06T19:52:29.236Z,4.88
2023-02-06T19:55:31.816Z,5.15
2023-02-06T19:58:34.402Z,4.63
2023-02-06T20:01:36.642Z,4.97
2023-02-06T20:04:40.204Z,5.22
2023-02-06T20:07:49.726Z,5.78
2023-02-06T20:10:55.685Z,4.70
2023-02-06T20:14:01.107Z,5.07
2023-02-06T20:17:05.194Z,4.88
2023-02-06T20:20:11.615Z,5.38
2023-02-06T20:23:13.611Z,4.80
2023-02-06T20:26:20.025Z,5.38
2023-02-06T20:29:26.771Z,4.75
2023-02-06T20:32:30.056Z,5.60
2023-02-06T20:35:32.601Z,4.63
2023-02-06T20:38:34.850Z,5.03
2023-02-06T20:41:39.367Z,4.75
2023-02-06T20:44:44.166Z,4.53
2023-02-06T20:47:49.535Z,4.90
2023-02-06T20:51:03.602Z,5.00
2023-02-06T20:54:06.759Z,5.13
2023-02-06T20:57:11.294Z,5.32
2023-02-06T21:00:14.906Z,4.45
2023-02-06T21:03:20.259Z,5.03
2023-02-06T21:06:26.889Z,4.90
2023-02-06T21:09:29.205Z,5.75
2023-02-06T21:12:32.397Z,5.25
2023-02-06T21:15:34.640Z,4.72
2023-02-06T21:18:37.969Z,5.25
2023-02-06T21:21:41.050Z,5.20
2023-02-06T21:24:47.336Z,4.45
2023-02-06T21:27:49.989Z,4.80
2023-02-06T21:31:00.249Z,5.10
2023-02-06T21:34:18.257Z,5.70
2023-02-06T21:37:23.131Z,5.45
2023-02-06T21:40:27.804Z,5.43
2023-02-06T21:43:29.882Z,5.45
2023-02-06T21:46:32.508Z,6.53
2023-02-06T21:49:34.918Z,5.68
2023-02-06T21:52:39.081Z,5.20
2023-02-06T21:55:43.292Z,5.97
2023-02-06T21:58:45.881Z,5.68
2023-02-06T22:01:48.038Z,5.82
2023-02-06T22:04:50.200Z,5.22
2023-02-06T22:07:54.314Z,5.18
2023-02-06T22:10:56.332Z,5.00
2023-02-06T22:14:06.395Z,5.80
2023-02-06T22:17:08.783Z,4.63
2023-02-06T22:20:11.423Z,5.45
2023-02-06T22:23:13.796Z,5.00
2023-02-06T22:26:18.612Z,5.30
2023-02-06T22:29:21.810Z,5.78
2023-02-06T22:32:24.188Z,5.75
2023-02-06T22:35:26.878Z,5.30
2023-02-06T22:38:28.977Z,5.07
2023-02-06T22:41:31.429Z,5.68
2023-02-06T22:44:33.919Z,5.80
2023-02-06T22:47:36.448Z,5.13
2023-02-06T22:50:39.697Z,5.70
2023-02-06T22:53:42.506Z,6.40
2023-02-06T22:56:45.589Z,5.68
2023-02-06T22:59:47.810Z,6.10
2023-02-06T23:02:50.316Z,6.38
2023-02-06T23:05:52.626Z,6.38
2023-02-06T23:08:57.332Z,6.15
2023-02-06T23:12:07.343Z,6.47
2023-02-06T23:15:12.216Z,5.53
2023-02-06T23:18:14.478Z,6.47
2023-02-06T23:21:19.464Z,5.78
2023-02-06T23:24:21.934Z,5.70
2023-02-06T23:27:25.799Z,6.82
2023-02-06T23:30:31.146Z,6.53
2023-02-06T23:33:35.731Z,5.45
2023-02-06T23:36:38.208Z,6.45
2023-02-06T23:39:42.781Z,6.32
2023-02-06T23:42:45.536Z,6.47
2023-02-06T23:45:48.312Z,6.13
2023-02-06T23:48:51.606Z,5.20
2023-02-06T23:51:53.743Z,7.00
2023-02-06T23:54:57.189Z,6.80
2023-02-06T23:57:59.375Z,5.95
